Time;durP1;ratioP1;P1;durP2;ratioP2;P2;SDS_P1;SDS_P2;PMS_P1;PMS_P2;Temp;Humidity;BMP_temperature;BMP_pressure;BME280_temperature;BME280_humidity;BME280_pressure;Samples;Min_cycle;Max_cycle;Signal;HPM_P1;HPM_P2
2023/07/10 00:01:43;;;;;;;8.23;5.70;;;;;25.30;98865.00;;;;5011596;28;20522;-64
2023/07/10 00:04:19;;;;;;;8.15;6.20;;;;;25.40;98875.00;;;;4996043;28;20052;-64
2023/07/10 00:06:46;;;;;;;9.55;5.53;;;;;25.50;98869.00;;;;4994967;28;20046;-64
2023/07/10 00:09:13;;;;;;;10.65;5.82;;;;;25.60;98865.00;;;;4995526;28;20050;-64
2023/07/10 00:11:40;;;;;;;6.07;5.20;;;;;25.60;98860.00;;;;4996040;28;20509;-64
2023/07/10 00:14:23;;;;;;;7.85;5.40;;;;;25.70;98854.00;;;;4995994;28;20478;-64
2023/07/10 00:16:51;;;;;;;7.93;5.38;;;;;25.60;98856.00;;;;4994935;28;20137;-63
2023/07/10 00:19:18;;;;;;;11.57;5.53;;;;;25.70;98862.00;;;;4995462;28;20121;-63
2023/07/10 00:21:51;;;;;;;11.83;5.03;;;;;25.70;98862.00;;;;4996135;28;20064;-64
2023/07/10 00:24:18;;;;;;;9.20;5.32;;;;;25.50;98851.00;;;;4995769;28;20042;-64
2023/07/10 00:26:44;;;;;;;9.20;5.32;;;;;25.30;98852.00;;;;4995838;28;20517;-63
2023/07/10 00:29:24;;;;;;;8.77;5.30;;;;;25.30;98846.00;;;;5010201;28;20051;-64
2023/07/10 00:31:51;;;;;;;6.97;5.15;;;;;25.30;98849.00;;;;4995726;28;20117;-64
2023/07/10 00:34:25;;;;;;;7.88;5.47;;;;;25.40;98849.00;;;;5010691;28;20137;-64
2023/07/10 00:36:52;;;;;;;5.95;5.35;;;;;25.50;98852.00;;;;4995667;28;20043;-65
2023/07/10 00:39:25;;;;;;;6.72;5.57;;;;;25.50;98843.00;;;;5009944;28;20052;-64
2023/07/10 00:41:57;;;;;;;9.07;5.40;;;;;25.50;98852.00;;;;4995636;28;20050;-64
2023/07/10 00:44:30;;;;;;;8.55;5.07;;;;;25.30;98853.00;;;;5010581;28;20121;-65
2023/07/10 00:47:03;;;;;;;7.68;5.15;;;;;25.30;98850.00;;;;4994364;28;20053;-65
2023/07/10 00:49:36;;;;;;;8.30;5.65;;;;;25.30;98859.00;;;;4993804;28;20050;-64
2023/07/10 00:52:14;;;;;;;6.18;5.22;;;;;25.30;98870.00;;;;4995252;28;20137;-65
2023/07/10 00:54:45;;;;;;;8.57;5.18;;;;;25.30;98879.00;;;;4994003;28;20050;-64
2023/07/10 00:57:33;;;;;;;10.13;5.68;;;;;25.30;98874.00;;;;4995474;28;20069;-64
2023/07/10 01:00:11;;;;;;;10.15;5.25;;;;;25.30;98889.00;;;;4993322;28;20084;-64
2023/07/10 01:02:37;;;;;;;5.70;5.07;;;;;25.30;98890.00;;;;5010223;28;20054;-64
2023/07/10 01:05:04;;;;;;;8.95;4.97;;;;;25.20;98888.00;;;;5009972;28;20065;-64
2023/07/10 01:07:38;;;;;;;7.50;5.45;;;;;25.00;98904.00;;;;4993811;28;20046;-64
2023/07/10 01:10:09;;;;;;;7.70;4.97;;;;;24.80;98910.00;;;;4994133;28;20173;-64
2023/07/10 01:12:36;;;;;;;10.02;5.20;;;;;24.80;98919.00;;;;4993636;28;20047;-64
2023/07/10 01:15:04;;;;;;;9.38;5.65;;;;;24.90;98911.00;;;;4994669;28;20060;-64
2023/07/10 01:17:30;;;;;;;10.48;5.63;;;;;24.80;98904.00;;;;4994807;28;20070;-64
2023/07/10 01:20:00;;;;;;;6.25;5.20;;;;;24.70;98906.00;;;;5009229;28;20050;-64
2023/07/10 01:22:28;;;;;;;6.40;5.13;;;;;24.70;98907.00;;;;4993594;28;20047;-64
2023/07/10 01:24:56;;;;;;;7.75;5.72;;;;;24.80;98907.00;;;;4994550;28;20447;-64
2023/07/10 01:27:23;;;;;;;7.57;5.95;;;;;25.00;98905.00;;;;4993232;28;20050;-64
2023/07/10 01:30:00;;;;;;;7.65;5.88;;;;;25.10;98899.00;;;;4994090;28;20507;-64
2023/07/10 01:32:28;;;;;;;7.95;5.88;;;;;25.20;98896.00;;;;4994632;28;20051;-64
2023/07/10 01:34:59;;;;;;;7.13;5.68;;;;;25.20;98893.00;;;;4994397;28;20047;-63
2023/07/10 01:37:26;;;;;;;9.35;5.80;;;;;25.20;98906.00;;;;5009500;28;20050;-64
2023/07/10 01:39:54;;;;;;;8.98;6.00;;;;;25.10;98900.00;;;;4992225;28;20054;-64
2023/07/10 01:42:22;;;;;;;6.35;5.45;;;;;25.10;98899.00;;;;4994458;28;20038;-64
2023/07/10 01:44:50;;;;;;;8.15;5.07;;;;;25.10;98905.00;;;;4994444;28;20074;-64
2023/07/10 01:47:17;;;;;;;5.93;4.88;;;;;25.10;98918.00;;;;5009160;28;20125;-64
2023/07/10 01:49:50;;;;;;;10.02;5.63;;;;;25.10;98920.00;;;;4993608;28;20053;-64
2023/07/10 01:52:18;;;;;;;6.95;4.93;;;;;25.10;98909.00;;;;4992975;28;20077;-64
2023/07/10 01:54:45;;;;;;;7.82;5.63;;;;;24.90;98901.00;;;;4994151;28;20053;-64
2023/07/10 01:57:14;;;;;;;8.43;5.30;;;;;24.70;98894.00;;;;4992793;28;20054;-64
2023/07/10 01:59:41;;;;;;;5.95;5.03;;;;;24.60;98886.00;;;;5008297;28;20050;-64
2023/07/10 02:02:08;;;;;;;7.40;5.25;;;;;24.40;98902.00;;;;5008990;28;20410;-64
2023/07/10 02:04:36;;;;;;;7.15;5.60;;;;;24.60;98911.00;;;;4992166;28;20078;-63
2023/07/10 02:07:03;;;;;;;7.93;6.10;;;;;24.70;98903.00;;;;4993905;28;20074;-64
2023/07/10 02:09:30;;;;;;;7.30;5.60;;;;;24.80;98900.00;;;;4992859;28;20431;-64
2023/07/10 02:11:57;;;;;;;8.88;5.90;;;;;24.80;98885.00;;;;4992821;28;20383;-64
2023/07/10 02:14:25;;;;;;;6.95;4.97;;;;;24.70;98885.00;;;;4992373;28;20062;-64
2023/07/10 02:16:52;;;;;;;12.40;6.38;;;;;24.70;98888.00;;;;4992518;28;20047;-64
2023/07/10 02:19:19;;;;;;;7.53;5.55;;;;;24.70;98886.00;;;;4991740;28;20097;-64
2023/07/10 02:21:47;;;;;;;6.82;6.10;;;;;24.70;98901.00;;;;4992290;28;20042;-64
2023/07/10 02:24:14;;;;;;;7.97;5.07;;;;;24.70;98912.00;;;;4992224;28;20468;-64
2023/07/10 02:26:41;;;;;;;5.82;5.03;;;;;24.70;98904.00;;;;4993765;28;20089;-64
2023/07/10 02:29:07;;;;;;;9.07;5.60;;;;;24.70;98901.00;;;;4991673;28;20052;-64
2023/07/10 02:31:36;;;;;;;6.90;5.72;;;;;24.60;98915.00;;;;5008757;28;20069;-64
2023/07/10 02:34:02;;;;;;;6.13;5.10;;;;;24.40;98919.00;;;;4992161;28;20054;-64
2023/07/10 02:36:29;;;;;;;7.93;5.63;;;;;24.40;98918.00;;;;4993261;28;20050;-64
2023/07/10 02:38:56;;;;;;;7.50;5.15;;;;;24.30;98916.00;;;;4993362;28;20451;-64
2023/07/10 02:41:23;;;;;;;6.32;5.30;;;;;24.30;98925.00;;;;5007872;28;20146;-64
2023/07/10 02:43:50;;;;;;;6.53;5.65;;;;;24.20;98922.00;;;;4992021;28;20078;-64
2023/07/10 02:46:17;;;;;;;8.57;5.93;;;;;24.20;98919.00;;;;5008477;28;20050;-64
2023/07/10 02:48:44;;;;;;;8.50;5.53;;;;;24.10;98923.00;;;;4991855;28;20414;-64
2023/07/10 02:51:10;;;;;;;7.55;6.03;;;;;24.00;98908.00;;;;4991538;28;20153;-64
2023/07/10 02:53:37;;;;;;;11.73;5.80;;;;;24.00;98913.00;;;;4991845;28;20092;-64
2023/07/10 02:56:04;;;;;;;6.22;5.60;;;;;24.00;98912.00;;;;5007923;28;20058;-64
2023/07/10 02:58:31;;;;;;;7.82;6.07;;;;;23.90;98917.00;;;;4991716;28;20048;-64
2023/07/10 03:01:00;;;;;;;11.57;6.28;;;;;23.90;98916.00;;;;5007454;28;20046;-64
2023/07/10 03:03:27;;;;;;;9.77;6.15;;;;;23.90;98925.00;;;;4991597;28;20046;-64
2023/07/10 03:06:00;;;;;;;7.85;5.70;;;;;23.90;98929.00;;;;4992883;28;20046;-64
2023/07/10 03:08:27;;;;;;;8.20;6.15;;;;;23.90;98926.00;;;;4992860;28;20042;-64
2023/07/10 03:11:09;;;;;;;12.25;6.35;;;;;23.90;98928.00;;;;4992343;28;20073;-64
2023/07/10 03:13:36;;;;;;;9.80;6.45;;;;;23.90;98930.00;;;;4991451;28;20046;-64
2023/07/10 03:16:06;;;;;;;9.30;6.47;;;;;24.00;98937.00;;;;4974619;28;20050;-64
2023/07/10 03:18:35;;;;;;;7.35;6.47;;;;;24.00;98937.00;;;;4992764;28;20062;-63
2023/07/10 03:21:05;;;;;;;9.82;6.85;;;;;23.90;98938.00;;;;4990839;28;20056;-64
2023/07/10 03:23:32;;;;;;;8.40;6.88;;;;;24.00;98926.00;;;;4992717;28;20043;-64
2023/07/10 03:25:58;;;;;;;10.57;8.85;;;;;24.00;98930.00;;;;4992619;28;20046;-64
2023/07/10 03:28:25;;;;;;;7.82;6.80;;;;;23.80;98931.00;;;;4992563;28;20345;-64
2023/07/10 03:30:52;;;;;;;8.55;6.93;;;;;23.80;98927.00;;;;4992258;28;20376;-64
2023/07/10 03:33:19;;;;;;;11.68;7.28;;;;;23.70;98935.00;;;;4991464;28;20046;-63
2023/07/10 03:35:49;;;;;;;8.90;7.10;;;;;23.60;98950.00;;;;4990761;28;20053;-63
2023/07/10 03:38:16;;;;;;;7.68;6.60;;;;;23.40;98948.00;;;;5007995;28;20050;-64
2023/07/10 03:40:51;;;;;;;8.27;6.90;;;;;23.30;98955.00;;;;4990912;28;20053;-64
2023/07/10 03:43:17;;;;;;;8.50;6.75;;;;;23.30;98952.00;;;;4992528;28;20043;-64
2023/07/10 03:45:44;;;;;;;11.98;8.00;;;;;23.40;98953.00;;;;4991300;28;20082;-64
2023/07/10 03:48:11;;;;;;;9.45;6.90;;;;;23.60;98964.00;;;;4991237;28;20089;-64
2023/07/10 03:50:38;;;;;;;9.50;7.40;;;;;23.80;98968.00;;;;4991752;28;20129;-64
2023/07/10 03:53:04;;;;;;;9.70;6.88;;;;;23.80;98969.00;;;;4992394;28;20056;-64
2023/07/10 03:55:31;;;;;;;9.55;6.82;;;;;23.90;98966.00;;;;5007352;28;20050;-64
2023/07/10 03:57:57;;;;;;;11.50;8.32;;;;;23.80;98968.00;;;;5007392;28;20121;-65
2023/07/10 04:00:24;;;;;;;7.22;6.38;;;;;23.60;98968.00;;;;4990237;28;20069;-64
2023/07/10 04:02:50;;;;;;;45.40;32.65;;;;;23.60;98971.00;;;;4992319;28;20459;-63
2023/07/10 04:05:17;;;;;;;16.48;11.23;;;;;23.50;98974.00;;;;4992299;28;20043;-63
2023/07/10 04:07:44;;;;;;;8.52;7.00;;;;;23.50;98978.00;;;;4992279;28;20134;-63
2023/07/10 04:10:10;;;;;;;11.48;8.90;;;;;23.70;98970.00;;;;4991601;28;20031;-63
2023/07/10 04:12:40;;;;;;;8.30;7.03;;;;;23.60;98978.00;;;;5007174;28;20461;-63
2023/07/10 04:15:07;;;;;;;10.13;6.68;;;;;23.70;98978.00;;;;4992079;28;20046;-64
2023/07/10 04:17:34;;;;;;;9.10;7.32;;;;;23.60;98969.00;;;;4992178;28;20050;-64
2023/07/10 04:20:03;;;;;;;9.02;7.40;;;;;23.50;98970.00;;;;4991427;28;20045;-63
2023/07/10 04:22:29;;;;;;;9.45;7.15;;;;;23.60;98972.00;;;;5007007;28;20057;-63
2023/07/10 04:25:03;;;;;;;7.43;6.70;;;;;23.80;98985.00;;;;4991825;28;20129;-64
2023/07/10 04:27:31;;;;;;;11.20;7.45;;;;;24.10;98991.00;;;;4994638;28;20053;-64
2023/07/10 04:29:59;;;;;;;10.57;6.88;;;;;24.30;99001.00;;;;4993745;28;20057;-64
2023/07/10 04:32:25;;;;;;;10.40;6.88;;;;;24.40;99008.00;;;;4995986;28;20412;-64
2023/07/10 04:34:52;;;;;;;7.63;6.63;;;;;24.40;99010.00;;;;4995560;28;20502;-64
2023/07/10 04:37:19;;;;;;;11.63;7.30;;;;;24.50;99007.00;;;;5010688;28;20468;-64
2023/07/10 04:39:45;;;;;;;10.50;6.45;;;;;24.50;99010.00;;;;4995210;28;20066;-64
2023/07/10 04:42:12;;;;;;;8.15;6.60;;;;;24.50;99015.00;;;;4995635;28;20133;-64
2023/07/10 04:44:38;;;;;;;7.55;6.47;;;;;24.50;99018.00;;;;4995463;28;20050;-64
2023/07/10 04:47:05;;;;;;;11.80;7.50;;;;;24.60;99026.00;;;;4994224;28;20050;-65
2023/07/10 04:49:32;;;;;;;8.15;6.82;;;;;24.60;99035.00;;;;4994616;28;20439;-65
2023/07/10 04:51:58;;;;;;;8.55;6.97;;;;;24.60;99038.00;;;;4995393;28;20048;-64
2023/07/10 04:54:25;;;;;;;37.70;28.48;;;;;24.60;99037.00;;;;4994972;28;20050;-63
2023/07/10 04:56:52;;;;;;;8.60;7.30;;;;;24.60;99042.00;;;;4995323;28;20066;-64
2023/07/10 04:59:19;;;;;;;9.30;7.18;;;;;24.60;99035.00;;;;4994864;28;20057;-64
2023/07/10 05:01:45;;;;;;;9.80;6.95;;;;;24.50;99036.00;;;;4995203;28;20070;-64
2023/07/10 05:04:12;;;;;;;12.25;7.70;;;;;24.30;99032.00;;;;4994894;28;20042;-63
2023/07/10 05:06:38;;;;;;;11.20;6.97;;;;;24.20;99033.00;;;;4995038;28;20615;-64
2023/07/10 05:09:05;;;;;;;8.43;6.90;;;;;24.30;99033.00;;;;4994456;28;20121;-63
2023/07/10 05:11:32;;;;;;;9.77;7.32;;;;;24.50;99031.00;;;;5010449;28;20042;-64
2023/07/10 05:13:58;;;;;;;8.57;6.85;;;;;24.80;99026.00;;;;5009962;28;20416;-65
2023/07/10 05:16:25;;;;;;;7.88;6.97;;;;;24.90;99032.00;;;;4994733;28;20050;-64
2023/07/10 05:18:52;;;;;;;9.95;7.50;;;;;25.00;99025.00;;;;4994734;28;20038;-64
2023/07/10 05:21:19;;;;;;;10.60;6.80;;;;;25.10;99024.00;;;;5009261;28;20050;-64
2023/07/10 05:23:45;;;;;;;12.48;7.05;;;;;25.20;99021.00;;;;4994870;28;20077;-64
2023/07/10 05:26:15;;;;;;;8.40;6.57;;;;;25.10;99014.00;;;;4994693;28;20043;-64
2023/07/10 05:28:42;;;;;;;10.88;7.30;;;;;24.90;99029.00;;;;4994833;28;20048;-64
2023/07/10 05:31:10;;;;;;;10.90;6.68;;;;;24.90;99023.00;;;;4994079;28;20046;-64
2023/07/10 05:33:38;;;;;;;9.52;6.90;;;;;25.00;99031.00;;;;5009566;28;20046;-64
2023/07/10 05:36:07;;;;;;;9.35;6.50;;;;;25.10;99033.00;;;;5009516;28;20053;-64
2023/07/10 05:38:35;;;;;;;11.40;6.35;;;;;25.30;99039.00;;;;4993210;28;20117;-64
2023/07/10 05:41:03;;;;;;;9.82;6.43;;;;;25.50;99043.00;;;;4993793;28;20127;-64
2023/07/10 05:43:31;;;;;;;8.68;6.97;;;;;25.60;99042.00;;;;4994401;28;20039;-64
2023/07/10 05:45:58;;;;;;;10.43;7.13;;;;;25.70;99035.00;;;;4993095;28;20406;-63
2023/07/10 05:48:26;;;;;;;7.97;6.15;;;;;25.80;99044.00;;;;4994051;28;20526;-64
2023/07/10 05:50:53;;;;;;;8.68;6.05;;;;;25.90;99044.00;;;;4993754;28;20601;-64
2023/07/10 05:53:20;;;;;;;8.48;6.53;;;;;26.00;99053.00;;;;4994128;28;20052;-64
2023/07/10 05:55:51;;;;;;;7.70;6.45;;;;;26.00;99055.00;;;;4993086;28;20042;-64
2023/07/10 05:58:20;;;;;;;8.73;6.40;;;;;26.00;99060.00;;;;4993887;28;20074;-64
2023/07/10 06:00:48;;;;;;;8.90;6.82;;;;;26.00;99058.00;;;;5008768;28;20078;-64
2023/07/10 06:03:15;;;;;;;9.02;6.80;;;;;26.10;99060.00;;;;4993983;28;20125;-64
2023/07/10 06:05:42;;;;;;;7.03;6.32;;;;;26.10;99062.00;;;;4992709;28;20053;-64
2023/07/10 06:08:10;;;;;;;9.85;6.38;;;;;26.20;99065.00;;;;5008933;28;20475;-64
2023/07/10 06:10:37;;;;;;;9.30;6.78;;;;;26.20;99073.00;;;;4992966;28;20034;-64
2023/07/10 06:13:03;;;;;;;6.65;5.65;;;;;26.30;99070.00;;;;4993758;28;20101;-64
2023/07/10 06:15:30;;;;;;;7.45;6.68;;;;;26.40;99065.00;;;;4993192;28;20146;-64
2023/07/10 06:17:57;;;;;;;9.27;6.60;;;;;26.50;99071.00;;;;4993470;28;20046;-64
2023/07/10 06:20:23;;;;;;;7.20;6.00;;;;;26.50;99076.00;;;;4993136;28;20073;-64
2023/07/10 06:22:50;;;;;;;10.13;6.07;;;;;26.50;99078.00;;;;4993668;28;20088;-64
2023/07/10 06:25:17;;;;;;;9.27;6.03;;;;;26.60;99081.00;;;;4992123;28;20513;-64
2023/07/10 06:27:43;;;;;;;11.77;7.05;;;;;26.70;99084.00;;;;4993458;28;20042;-64
2023/07/10 06:30:11;;;;;;;7.97;6.32;;;;;26.70;99079.00;;;;4992856;28;20046;-64
2023/07/10 06:32:37;;;;;;;14.55;6.22;;;;;26.80;99084.00;;;;4993378;28;20403;-64
2023/07/10 06:35:05;;;;;;;9.32;5.93;;;;;26.80;99088.00;;;;4993264;28;20054;-64
2023/07/10 06:37:32;;;;;;;8.80;5.60;;;;;26.80;99090.00;;;;4993494;28;20414;-64
2023/07/10 06:40:13;;;;;;;8.82;5.35;;;;;26.90;99091.00;;;;4992251;28;20122;-64
2023/07/10 06:42:42;;;;;;;8.38;6.25;;;;;26.90;99089.00;;;;5008494;28;20137;-64
2023/07/10 06:45:12;;;;;;;7.75;5.65;;;;;27.00;99094.00;;;;4991892;28;20050;-63
2023/07/10 06:47:41;;;;;;;16.33;5.78;;;;;27.00;99089.00;;;;4993072;28;20046;-64
2023/07/10 06:50:10;;;;;;;10.30;5.50;;;;;27.00;99091.00;;;;4991000;28;20050;-63
2023/07/10 06:52:39;;;;;;;9.38;5.43;;;;;27.00;99099.00;;;;4993030;28;20057;-63
2023/07/10 06:55:07;;;;;;;6.40;5.38;;;;;27.00;99099.00;;;;5008029;28;20113;-63
2023/07/10 06:57:34;;;;;;;8.85;6.18;;;;;27.00;99096.00;;;;4993021;28;20052;-63
2023/07/10 07:00:01;;;;;;;8.00;5.90;;;;;27.00;99098.00;;;;4992502;28;20061;-64
2023/07/10 07:02:28;;;;;;;9.07;5.45;;;;;27.10;99107.00;;;;4991646;28;20065;-63
2023/07/10 07:04:54;;;;;;;8.95;5.95;;;;;27.20;99105.00;;;;4992816;28;20505;-64
2023/07/10 07:07:21;;;;;;;9.18;5.47;;;;;27.20;99101.00;;;;4992914;28;20042;-63
2023/07/10 07:09:49;;;;;;;9.45;5.82;;;;;27.30;99099.00;;;;4991976;28;20075;-63
2023/07/10 07:12:16;;;;;;;8.60;5.25;;;;;27.30;99093.00;;;;4992949;28;20057;-63
2023/07/10 07:14:43;;;;;;;6.95;5.40;;;;;27.20;99105.00;;;;4991190;28;20047;-64
2023/07/10 07:17:09;;;;;;;6.50;5.53;;;;;27.20;99093.00;;;;4992713;28;20048;-64
2023/07/10 07:19:36;;;;;;;10.77;5.70;;;;;27.30;99090.00;;;;4990652;28;20054;-63
2023/07/10 07:22:03;;;;;;;7.20;5.53;;;;;27.30;99084.00;;;;4992740;28;20073;-63
2023/07/10 07:24:30;;;;;;;7.10;5.70;;;;;27.40;99086.00;;;;4992367;28;20038;-64
2023/07/10 07:26:56;;;;;;;6.93;5.63;;;;;27.50;99089.00;;;;5007688;28;20073;-64
2023/07/10 07:29:23;;;;;;;10.68;5.63;;;;;27.60;99086.00;;;;5007001;28;20046;-64
2023/07/10 07:31:49;;;;;;;9.23;5.65;;;;;27.80;99093.00;;;;4992550;28;20047;-64
2023/07/10 07:34:16;;;;;;;7.93;6.03;;;;;27.80;99089.00;;;;4992396;28;20084;-64
2023/07/10 07:36:42;;;;;;;9.52;6.10;;;;;27.90;99087.00;;;;4991265;28;20136;-63
2023/07/10 07:39:09;;;;;;;8.63;6.47;;;;;28.00;99080.00;;;;4991577;28;20050;-64
2023/07/10 07:41:36;;;;;;;7.47;5.88;;;;;28.10;99082.00;;;;4992450;28;20050;-64
2023/07/10 07:44:03;;;;;;;6.47;5.70;;;;;28.30;99083.00;;;;4992257;28;20121;-64
2023/07/10 07:46:29;;;;;;;8.77;6.55;;;;;28.30;99085.00;;;;4992332;28;20042;-64
2023/07/10 07:48:56;;;;;;;9.57;6.35;;;;;28.30;99088.00;;;;4992196;28;20050;-64
2023/07/10 07:51:22;;;;;;;7.03;5.38;;;;;28.20;99088.00;;;;4990523;28;20054;-64
2023/07/10 07:54:01;;;;;;;8.70;5.88;;;;;28.20;99095.00;;;;4992300;28;20052;-64
2023/07/10 07:56:28;;;;;;;9.02;5.53;;;;;28.20;99084.00;;;;4992229;28;20057;-64
2023/07/10 07:58:55;;;;;;;6.93;5.50;;;;;28.40;99095.00;;;;4992136;28;20043;-63
2023/07/10 08:01:21;;;;;;;11.43;5.97;;;;;28.50;99095.00;;;;4992384;28;20050;-64
2023/07/10 08:03:48;;;;;;;8.32;5.57;;;;;28.60;99096.00;;;;4996041;28;20053;-64
2023/07/10 08:06:15;;;;;;;6.80;5.35;;;;;28.70;99097.00;;;;4996084;28;20053;-64
2023/07/10 08:08:41;;;;;;;9.00;5.00;;;;;28.60;99102.00;;;;4995675;28;20049;-64
2023/07/10 08:11:08;;;;;;;7.25;4.90;;;;;28.60;99103.00;;;;4995305;28;20054;-64
2023/07/10 08:13:35;;;;;;;6.55;5.20;;;;;28.50;99098.00;;;;4996030;28;20046;-64
2023/07/10 08:16:02;;;;;;;10.13;5.70;;;;;28.50;99089.00;;;;4995612;28;20046;-64
2023/07/10 08:18:29;;;;;;;7.15;5.55;;;;;28.60;99097.00;;;;4994655;28;20054;-64
2023/07/10 08:21:06;;;;;;;8.20;5.35;;;;;28.80;99100.00;;;;4995401;28;20089;-64
2023/07/10 08:23:32;;;;;;;8.18;5.32;;;;;29.00;99095.00;;;;4995835;28;20043;-64
2023/07/10 08:25:59;;;;;;;5.65;5.05;;;;;29.00;99103.00;;;;4995701;28;20129;-64
2023/07/10 08:28:27;;;;;;;5.20;4.57;;;;;29.10;99105.00;;;;4995853;28;20050;-64
2023/07/10 08:30:53;;;;;;;8.30;5.38;;;;;29.00;99097.00;;;;4995149;28;20038;-64
2023/07/10 08:33:20;;;;;;;7.50;5.20;;;;;29.20;99097.00;;;;4995812;28;20054;-64
2023/07/10 08:35:58;;;;;;;5.93;4.65;;;;;29.30;99106.00;;;;4995767;28;20437;-64
2023/07/10 08:38:24;;;;;;;9.35;5.53;;;;;29.40;99107.00;;;;4995911;28;20125;-64
2023/07/10 08:40:54;;;;;;;10.23;5.20;;;;;29.50;99099.00;;;;4995180;28;20038;-64
2023/07/10 08:43:34;;;;;;;6.82;5.22;;;;;29.50;99098.00;;;;4995666;28;20427;-64
2023/07/10 08:46:08;;;;;;;8.50;5.28;;;;;29.70;99093.00;;;;4995542;28;20137;-65
2023/07/10 08:48:42;;;;;;;5.60;5.00;;;;;30.00;99101.00;;;;5010590;28;20042;-64
2023/07/10 08:51:43;;;;;;;8.98;4.90;;;;;30.20;99095.00;;;;4994681;28;20038;-64
2023/07/10 08:54:16;;;;;;;6.22;4.85;;;;;30.50;99095.00;;;;4995209;28;20121;-64
2023/07/10 08:57:06;;;;;;;6.15;4.35;;;;;30.60;99093.00;;;;4995527;28;20038;-64
2023/07/10 08:59:39;;;;;;;6.88;4.85;;;;;30.70;99081.00;;;;5009771;28;20050;-64
2023/07/10 09:02:18;;;;;;;8.68;5.03;;;;;30.80;99089.00;;;;4995239;28;20054;-65
2023/07/10 09:04:48;;;;;;;5.95;4.60;;;;;30.80;99089.00;;;;4993902;28;20058;-64
2023/07/10 09:07:16;;;;;;;7.32;5.00;;;;;30.70;99096.00;;;;4994040;28;20050;-65
2023/07/10 09:09:48;;;;;;;6.75;4.13;;;;;30.50;99101.00;;;;4994190;28;20030;-64
2023/07/10 09:12:25;;;;;;;6.35;4.40;;;;;30.40;99093.00;;;;4994754;28;20042;-64
2023/07/10 09:15:00;;;;;;;8.77;5.20;;;;;30.50;99104.00;;;;5009199;28;20082;-64
2023/07/10 09:17:42;;;;;;;7.43;4.97;;;;;30.60;99104.00;;;;4994770;28;20050;-64
2023/07/10 09:20:13;;;;;;;8.00;4.63;;;;;30.60;99109.00;;;;5009414;28;20081;-65
2023/07/10 09:22:48;;;;;;;7.40;4.68;;;;;30.60;99107.00;;;;4994661;28;20046;-65
2023/07/10 09:25:15;;;;;;;4.90;3.92;;;;;30.50;99095.00;;;;4994440;28;20060;-65
2023/07/10 09:27:45;;;;;;;7.70;5.00;;;;;30.60;99103.00;;;;4994770;28;20052;-63
2023/07/10 09:30:26;;;;;;;4.57;4.00;;;;;30.70;99098.00;;;;4994184;28;20042;-63
2023/07/10 09:33:01;;;;;;;5.57;4.13;;;;;30.60;99101.00;;;;4994655;28;20462;-63
2023/07/10 09:35:28;;;;;;;5.60;3.65;;;;;30.40;99103.00;;;;5009566;28;20049;-63
2023/07/10 09:37:55;;;;;;;5.03;4.25;;;;;30.40;99101.00;;;;5001983;28;20042;-63
2023/07/10 09:40:47;;;;;;;5.80;4.10;;;;;30.50;99090.00;;;;5012710;28;20038;-63
2023/07/10 09:43:22;;;;;;;6.53;4.13;;;;;30.50;99102.00;;;;5013847;28;20046;-64
2023/07/10 09:45:58;;;;;;;9.05;4.30;;;;;30.60;99089.00;;;;5013817;28;20088;-64
2023/07/10 09:48:33;;;;;;;6.47;3.78;;;;;30.70;99093.00;;;;5012709;28;20502;-64
2023/07/10 09:51:11;;;;;;;5.55;3.75;;;;;30.90;99083.00;;;;5013378;28;20073;-64
2023/07/10 09:53:45;;;;;;;7.50;4.45;;;;;31.00;99075.00;;;;5013721;28;20486;-64
2023/07/10 09:56:27;;;;;;;5.55;3.97;;;;;31.20;99080.00;;;;5013792;28;20046;-64
2023/07/10 09:58:55;;;;;;;5.22;3.85;;;;;31.30;99077.00;;;;5013771;28;20042;-64
2023/07/10 10:01:27;;;;;;;5.18;4.28;;;;;31.40;99077.00;;;;5011740;28;20046;-64
2023/07/10 10:03:54;;;;;;;5.03;4.63;;;;;31.50;99085.00;;;;5013700;28;20158;-64
2023/07/10 10:06:27;;;;;;;5.18;4.30;;;;;31.60;99086.00;;;;5013409;28;20041;-64
2023/07/10 10:08:54;;;;;;;6.80;3.78;;;;;31.60;99085.00;;;;5013490;28;20520;-65
2023/07/10 10:11:44;;;;;;;6.55;4.07;;;;;31.50;99092.00;;;;5011629;28;20042;-66
2023/07/10 10:14:16;;;;;;;11.18;4.70;;;;;31.50;99086.00;;;;5013395;28;20042;-65
2023/07/10 10:16:49;;;;;;;6.20;4.32;;;;;31.50;99088.00;;;;5013477;28;20124;-64
2023/07/10 10:19:23;;;;;;;6.80;4.57;;;;;31.60;99077.00;;;;5012662;28;20085;-65
2023/07/10 10:21:50;;;;;;;6.43;4.43;;;;;31.50;99086.00;;;;5028652;28;20042;-66
2023/07/10 10:24:17;;;;;;;8.70;4.85;;;;;31.60;99094.00;;;;5027868;28;20054;-66
2023/07/10 10:26:55;;;;;;;5.38;4.13;;;;;31.60;99077.00;;;;5012897;28;20048;-67
2023/07/10 10:29:59;;;;;;;6.50;5.38;;;;;31.70;99079.00;;;;5028068;28;20085;-67
2023/07/10 10:32:35;;;;;;;5.82;5.00;;;;;31.60;99083.00;;;;5013389;28;20044;-67
2023/07/10 10:35:16;;;;;;;8.15;5.25;;;;;31.70;99092.00;;;;4995576;28;20066;-67
2023/07/10 10:38:17;;;;;;;5.07;4.53;;;;;31.70;99087.00;;;;5013162;28;20056;-67
2023/07/10 10:41:04;;;;;;;5.30;4.47;;;;;31.60;99105.00;;;;5027410;28;20046;-66
2023/07/10 10:43:49;;;;;;;8.18;4.38;;;;;31.50;99091.00;;;;5028159;28;20136;-66
2023/07/10 10:46:28;;;;;;;5.97;4.07;;;;;31.50;99095.00;;;;5028048;28;20050;-63
2023/07/10 10:49:32;;;;;;;4.20;3.55;;;;;31.80;99093.00;;;;5013223;28;20050;-64
2023/07/10 10:52:07;;;;;;;8.38;4.72;;;;;31.70;99097.00;;;;5013040;28;20046;-64
2023/07/10 10:55:18;;;;;;;4.82;4.30;;;;;31.60;99088.00;;;;5012818;28;20045;-64
2023/07/10 10:57:53;;;;;;;4.40;3.60;;;;;31.60;99088.00;;;;4975841;28;20093;-67
2023/07/10 11:00:20;;;;;;;4.05;3.58;;;;;31.50;99088.00;;;;5012411;28;20046;-64
2023/07/10 11:02:58;;;;;;;3.38;3.08;;;;;31.40;99093.00;;;;5027774;28;20050;-67
2023/07/10 11:05:35;;;;;;;4.22;3.28;;;;;31.30;99082.00;;;;5012587;28;20077;-64
2023/07/10 11:08:10;;;;;;;4.85;3.50;;;;;31.30;99075.00;;;;5012604;28;20042;-64
2023/07/10 11:10:40;;;;;;;3.22;2.92;;;;;31.40;99066.00;;;;5010664;28;20471;-63
2023/07/10 11:13:19;;;;;;;5.72;3.88;;;;;31.50;99069.00;;;;5011588;28;20046;-63
2023/07/10 11:15:46;;;;;;;4.22;3.33;;;;;31.70;99070.00;;;;5027371;28;20049;-63
2023/07/10 11:18:15;;;;;;;3.58;3.10;;;;;31.90;99060.00;;;;5012659;28;20050;-63
2023/07/10 11:20:42;;;;;;;11.40;3.60;;;;;31.90;99069.00;;;;5011886;28;20128;-63
2023/07/10 11:23:32;;;;;;;4.10;3.70;;;;;32.00;99076.00;;;;5028032;28;20049;-63
2023/07/10 11:26:01;;;;;;;4.38;3.72;;;;;31.90;99069.00;;;;5011402;28;20050;-62
2023/07/10 11:28:31;;;;;;;3.75;3.45;;;;;31.80;99075.00;;;;5027916;28;20123;-62
2023/07/10 11:31:16;;;;;;;4.10;3.30;;;;;31.80;99073.00;;;;5011855;28;20062;-62
2023/07/10 11:33:44;;;;;;;3.63;3.17;;;;;31.60;99071.00;;;;5012633;28;20088;-63
2023/07/10 11:36:17;;;;;;;3.83;3.40;;;;;31.70;99064.00;;;;5010572;28;20128;-63
2023/07/10 11:38:57;;;;;;;;;;;;;32.00;99068.00;;;;5013269;28;20052;-63
2023/07/10 11:41:28;;;;;;;4.13;3.10;;;;;32.00;99075.00;;;;5010351;28;20388;-63
2023/07/10 11:44:11;;;;;;;4.45;3.28;;;;;32.00;99066.00;;;;5012307;28;20088;-63
2023/07/10 11:46:53;;;;;;;5.38;3.40;;;;;32.00;99060.00;;;;5012580;28;20053;-63
2023/07/10 11:49:20;;;;;;;4.18;2.90;;;;;32.10;99065.00;;;;5011516;28;20048;-64
2023/07/10 11:52:15;;;;;;;4.70;3.25;;;;;32.10;99062.00;;;;5012080;28;20430;-63
2023/07/10 11:54:43;;;;;;;4.80;3.38;;;;;31.80;99063.00;;;;5012207;28;20482;-63
2023/07/10 11:57:24;;;;;;;3.38;3.00;;;;;31.90;99064.00;;;;5012678;28;20409;-63
2023/07/10 11:59:53;;;;;;;3.72;3.42;;;;;31.90;99056.00;;;;5011933;28;20068;-63
2023/07/10 12:02:39;;;;;;;4.25;3.15;;;;;31.90;99064.00;;;;5012821;28;20053;-63
2023/07/10 12:05:34;;;;;;;4.85;3.58;;;;;31.80;99059.00;;;;5012347;28;20046;-63
2023/07/10 12:08:07;;;;;;;3.40;3.10;;;;;31.90;99044.00;;;;5027581;28;20046;-63
2023/07/10 12:10:41;;;;;;;;;;;;;32.00;99069.00;;;;5012389;28;20056;-64
2023/07/10 12:13:29;;;;;;;5.72;2.97;;;;;32.00;99052.00;;;;5012881;28;19932;-64
2023/07/10 12:16:05;;;;;;;6.90;3.08;;;;;32.00;99053.00;;;;5012722;28;20050;-63
2023/07/10 12:18:35;;;;;;;2.78;2.58;;;;;32.00;99053.00;;;;5012413;28;20046;-64
2023/07/10 12:21:10;;;;;;;3.75;2.78;;;;;32.00;99048.00;;;;5010739;28;20136;-63
2023/07/10 12:23:37;;;;;;;3.78;2.70;;;;;32.10;99026.00;;;;5012047;28;20046;-63
2023/07/10 12:26:16;;;;;;;3.08;2.63;;;;;32.40;99034.00;;;;5012081;28;20053;-63
2023/07/10 12:29:02;;;;;;;3.78;2.78;;;;;32.50;99035.00;;;;5026819;28;20056;-63
2023/07/10 12:31:29;;;;;;;6.10;2.67;;;;;32.70;99029.00;;;;5011609;28;20038;-62
2023/07/10 12:34:00;;;;;;;4.93;3.05;;;;;32.80;99026.00;;;;5011110;28;20586;-62